sensor_id;sensor_type;location;lat;lon;timestamp;temperature;humidity
66337;SHT30;53139;45.576;5.304;2023-03-23T00:01:10;14.63;58.29
66337;SHT30;53139;45.576;5.304;2023-03-23T00:04:13;14.67;58.16
66337;SHT30;53139;45.576;5.304;2023-03-23T00:07:13;14.67;57.97
66337;SHT30;53139;45.576;5.304;2023-03-23T00:10:21;14.61;58.15
66337;SHT30;53139;45.576;5.304;2023-03-23T00:13:28;14.68;57.69
66337;SHT30;53139;45.576;5.304;2023-03-23T00:16:31;14.65;57.76
66337;SHT30;53139;45.576;5.304;2023-03-23T00:19:37;14.81;56.48
66337;SHT30;53139;45.576;5.304;2023-03-23T00:22:46;14.98;55.04
66337;SHT30;53139;45.576;5.304;2023-03-23T00:25:54;14.82;55.57
66337;SHT30;53139;45.576;5.304;2023-03-23T00:29:00;14.70;56.25
66337;SHT30;53139;45.576;5.304;2023-03-23T00:32:01;14.71;56.22
66337;SHT30;53139;45.576;5.304;2023-03-23T00:35:05;14.72;55.87
66337;SHT30;53139;45.576;5.304;2023-03-23T00:38:12;14.77;55.35
66337;SHT30;53139;45.576;5.304;2023-03-23T00:41:16;14.91;54.29
66337;SHT30;53139;45.576;5.304;2023-03-23T00:44:20;14.91;54.18
66337;SHT30;53139;45.576;5.304;2023-03-23T00:47:23;14.93;53.66
66337;SHT30;53139;45.576;5.304;2023-03-23T00:50:24;14.80;54.55
66337;SHT30;53139;45.576;5.304;2023-03-23T00:53:25;14.67;55.21
66337;SHT30;53139;45.576;5.304;2023-03-23T00:56:35;14.68;54.74
66337;SHT30;53139;45.576;5.304;2023-03-23T00:59:41;14.70;54.83
66337;SHT30;53139;45.576;5.304;2023-03-23T01:02:45;14.75;54.34
66337;SHT30;53139;45.576;5.304;2023-03-23T01:05:58;14.68;54.66
66337;SHT30;53139;45.576;5.304;2023-03-23T01:09:13;14.71;54.69
66337;SHT30;53139;45.576;5.304;2023-03-23T01:12:28;14.75;54.35
66337;SHT30;53139;45.576;5.304;2023-03-23T01:15:40;14.75;54.50
66337;SHT30;53139;45.576;5.304;2023-03-23T01:18:47;14.71;54.67
66337;SHT30;53139;45.576;5.304;2023-03-23T01:22:02;14.60;55.47
66337;SHT30;53139;45.576;5.304;2023-03-23T01:25:12;14.68;54.93
66337;SHT30;53139;45.576;5.304;2023-03-23T01:28:29;14.63;55.23
66337;SHT30;53139;45.576;5.304;2023-03-23T01:31:36;14.81;54.53
66337;SHT30;53139;45.576;5.304;2023-03-23T01:34:47;14.74;54.93
66337;SHT30;53139;45.576;5.304;2023-03-23T01:37:54;14.71;55.08
66337;SHT30;53139;45.576;5.304;2023-03-23T01:41:02;14.63;55.55
66337;SHT30;53139;45.576;5.304;2023-03-23T01:45:17;14.65;55.46
66337;SHT30;53139;45.576;5.304;2023-03-23T01:47:28;14.59;55.77
66337;SHT30;53139;45.576;5.304;2023-03-23T01:50:55;14.23;57.34
66337;SHT30;53139;45.576;5.304;2023-03-23T01:54:09;14.36;56.31
66337;SHT30;53139;45.576;5.304;2023-03-23T01:57:22;14.26;56.64
66337;SHT30;53139;45.576;5.304;2023-03-23T02:00:39;14.17;57.28
66337;SHT30;53139;45.576;5.304;2023-03-23T02:04:00;14.17;56.98
66337;SHT30;53139;45.576;5.304;2023-03-23T02:07:29;14.17;56.33
66337;SHT30;53139;45.576;5.304;2023-03-23T02:10:49;14.19;55.91
66337;SHT30;53139;45.576;5.304;2023-03-23T02:13:54;14.22;55.39
66337;SHT30;53139;45.576;5.304;2023-03-23T02:17:36;14.16;55.84
66337;SHT30;53139;45.576;5.304;2023-03-23T02:38:47;13.89;58.11
66337;SHT30;53139;45.576;5.304;2023-03-23T02:42:26;13.75;58.48
66337;SHT30;53139;45.576;5.304;2023-03-23T02:45:55;13.98;57.38
66337;SHT30;53139;45.576;5.304;2023-03-23T02:49:18;14.04;57.36
66337;SHT30;53139;45.576;5.304;2023-03-23T02:52:41;13.95;57.87
66337;SHT30;53139;45.576;5.304;2023-03-23T02:55:58;13.81;58.74
66337;SHT30;53139;45.576;5.304;2023-03-23T02:59:17;13.68;59.58
66337;SHT30;53139;45.576;5.304;2023-03-23T03:02:44;13.53;60.43
66337;SHT30;53139;45.576;5.304;2023-03-23T03:06:36;13.48;60.68
66337;SHT30;53139;45.576;5.304;2023-03-23T03:10:02;13.44;60.79
66337;SHT30;53139;45.576;5.304;2023-03-23T03:16:46;13.60;60.11
66337;SHT30;53139;45.576;5.304;2023-03-23T03:20:09;13.74;59.21
66337;SHT30;53139;45.576;5.304;2023-03-23T03:23:26;13.81;58.74
66337;SHT30;53139;45.576;5.304;2023-03-23T03:26:51;13.71;59.26
66337;SHT30;53139;45.576;5.304;2023-03-23T03:30:12;13.67;59.37
66337;SHT30;53139;45.576;5.304;2023-03-23T03:33:20;13.55;60.17
66337;SHT30;53139;45.576;5.304;2023-03-23T03:36:32;13.54;60.10
66337;SHT30;53139;45.576;5.304;2023-03-23T03:39:38;13.40;60.78
66337;SHT30;53139;45.576;5.304;2023-03-23T03:42:51;13.44;60.65
66337;SHT30;53139;45.576;5.304;2023-03-23T03:46:04;13.42;60.72
66337;SHT30;53139;45.576;5.304;2023-03-23T03:49:22;13.47;60.75
66337;SHT30;53139;45.576;5.304;2023-03-23T03:52:35;13.46;60.77
66337;SHT30;53139;45.576;5.304;2023-03-23T03:55:50;13.48;60.80
66337;SHT30;53139;45.576;5.304;2023-03-23T03:59:06;13.57;60.09
66337;SHT30;53139;45.576;5.304;2023-03-23T04:02:22;13.60;59.23
66337;SHT30;53139;45.576;5.304;2023-03-23T04:05:23;13.53;59.56
66337;SHT30;53139;45.576;5.304;2023-03-23T04:08:41;13.47;59.44
66337;SHT30;53139;45.576;5.304;2023-03-23T04:12:14;13.47;59.48
66337;SHT30;53139;45.576;5.304;2023-03-23T04:15:43;13.50;59.24
66337;SHT30;53139;45.576;5.304;2023-03-23T04:19:08;13.44;59.43
66337;SHT30;53139;45.576;5.304;2023-03-23T04:22:23;13.44;59.21
66337;SHT30;53139;45.576;5.304;2023-03-23T04:25:33;13.40;59.34
66337;SHT30;53139;45.576;5.304;2023-03-23T04:28:39;13.28;59.94
66337;SHT30;53139;45.576;5.304;2023-03-23T04:31:41;13.32;59.64
66337;SHT30;53139;45.576;5.304;2023-03-23T04:34:45;13.28;59.90
66337;SHT30;53139;45.576;5.304;2023-03-23T04:37:46;13.28;59.65
66337;SHT30;53139;45.576;5.304;2023-03-23T04:40:48;13.28;59.54
66337;SHT30;53139;45.576;5.304;2023-03-23T04:43:52;13.26;59.62
66337;SHT30;53139;45.576;5.304;2023-03-23T04:47:02;13.26;59.39
66337;SHT30;53139;45.576;5.304;2023-03-23T04:50:15;13.26;59.51
66337;SHT30;53139;45.576;5.304;2023-03-23T04:53:22;13.06;60.82
66337;SHT30;53139;45.576;5.304;2023-03-23T04:56:36;13.19;59.66
66337;SHT30;53139;45.576;5.304;2023-03-23T04:59:49;13.22;59.73
66337;SHT30;53139;45.576;5.304;2023-03-23T05:03:12;13.19;59.75
66337;SHT30;53139;45.576;5.304;2023-03-23T05:06:35;13.27;59.28
66337;SHT30;53139;45.576;5.304;2023-03-23T05:10:11;13.23;59.44
66337;SHT30;53139;45.576;5.304;2023-03-23T05:13:31;13.42;58.43
66337;SHT30;53139;45.576;5.304;2023-03-23T05:17:03;13.33;59.05
66337;SHT30;53139;45.576;5.304;2023-03-23T05:20:23;13.42;58.79
66337;SHT30;53139;45.576;5.304;2023-03-23T05:23:36;13.43;58.63
66337;SHT30;53139;45.576;5.304;2023-03-23T05:26:37;13.27;59.43
66337;SHT30;53139;45.576;5.304;2023-03-23T05:29:41;13.28;59.57
66337;SHT30;53139;45.576;5.304;2023-03-23T05:32:48;13.20;59.98
66337;SHT30;53139;45.576;5.304;2023-03-23T05:35:52;13.20;59.92
66337;SHT30;53139;45.576;5.304;2023-03-23T05:38:58;13.15;60.19
66337;SHT30;53139;45.576;5.304;2023-03-23T05:42:23;13.03;61.51
66337;SHT30;53139;45.576;5.304;2023-03-23T05:45:39;12.96;61.58
66337;SHT30;53139;45.576;5.304;2023-03-23T05:48:53;13.05;61.34
66337;SHT30;53139;45.576;5.304;2023-03-23T05:52:11;13.08;60.88
66337;SHT30;53139;45.576;5.304;2023-03-23T05:55:21;13.08;60.93
66337;SHT30;53139;45.576;5.304;2023-03-23T05:58:49;12.99;61.90
66337;SHT30;53139;45.576;5.304;2023-03-23T06:02:13;13.02;61.94
66337;SHT30;53139;45.576;5.304;2023-03-23T06:05:15;13.09;60.99
66337;SHT30;53139;45.576;5.304;2023-03-23T06:08:16;13.17;60.69
66337;SHT30;53139;45.576;5.304;2023-03-23T06:11:17;13.05;61.66
66337;SHT30;53139;45.576;5.304;2023-03-23T06:14:17;12.98;62.02
66337;SHT30;53139;45.576;5.304;2023-03-23T06:17:18;13.15;61.15
66337;SHT30;53139;45.576;5.304;2023-03-23T06:20:18;13.13;61.50
66337;SHT30;53139;45.576;5.304;2023-03-23T06:23:18;13.13;61.86
66337;SHT30;53139;45.576;5.304;2023-03-23T06:26:19;13.15;61.84
66337;SHT30;53139;45.576;5.304;2023-03-23T06:29:20;13.17;62.03
66337;SHT30;53139;45.576;5.304;2023-03-23T06:32:21;13.17;61.73
66337;SHT30;53139;45.576;5.304;2023-03-23T06:35:23;13.20;62.00
66337;SHT30;53139;45.576;5.304;2023-03-23T06:38:23;13.26;62.12
66337;SHT30;53139;45.576;5.304;2023-03-23T06:41:25;13.24;62.03
66337;SHT30;53139;45.576;5.304;2023-03-23T06:44:25;13.17;62.98
66337;SHT30;53139;45.576;5.304;2023-03-23T06:47:27;13.22;62.33
66337;SHT30;53139;45.576;5.304;2023-03-23T06:50:29;13.17;62.84
66337;SHT30;53139;45.576;5.304;2023-03-23T06:53:30;13.16;63.19
66337;SHT30;53139;45.576;5.304;2023-03-23T06:56:31;13.17;63.49
66337;SHT30;53139;45.576;5.304;2023-03-23T06:59:31;13.12;63.62
66337;SHT30;53139;45.576;5.304;2023-03-23T07:02:32;13.10;63.92
66337;SHT30;53139;45.576;5.304;2023-03-23T07:05:34;13.06;64.36
66337;SHT30;53139;45.576;5.304;2023-03-23T07:08:35;12.98;64.72
66337;SHT30;53139;45.576;5.304;2023-03-23T07:11:36;12.98;64.68
66337;SHT30;53139;45.576;5.304;2023-03-23T07:14:37;12.98;64.65
66337;SHT30;53139;45.576;5.304;2023-03-23T07:17:39;13.00;64.94
66337;SHT30;53139;45.576;5.304;2023-03-23T07:20:39;13.03;65.18
66337;SHT30;53139;45.576;5.304;2023-03-23T07:23:40;13.09;64.13
66337;SHT30;53139;45.576;5.304;2023-03-23T07:26:41;13.15;64.14
66337;SHT30;53139;45.576;5.304;2023-03-23T07:29:44;13.17;64.42
66337;SHT30;53139;45.576;5.304;2023-03-23T07:32:45;13.10;64.18
66337;SHT30;53139;45.576;5.304;2023-03-23T07:35:45;13.13;64.34
66337;SHT30;53139;45.576;5.304;2023-03-23T07:38:47;13.12;64.50
66337;SHT30;53139;45.576;5.304;2023-03-23T07:41:48;13.16;64.92
66337;SHT30;53139;45.576;5.304;2023-03-23T07:44:49;13.17;65.02
66337;SHT30;53139;45.576;5.304;2023-03-23T07:47:49;13.28;64.52
66337;SHT30;53139;45.576;5.304;2023-03-23T07:50:50;13.39;64.53
66337;SHT30;53139;45.576;5.304;2023-03-23T07:53:51;13.36;64.43
66337;SHT30;53139;45.576;5.304;2023-03-23T07:56:51;13.50;64.76
66337;SHT30;53139;45.576;5.304;2023-03-23T07:59:52;13.64;63.90
66337;SHT30;53139;45.576;5.304;2023-03-23T08:02:57;13.85;63.89
66337;SHT30;53139;45.576;5.304;2023-03-23T08:05:58;13.71;63.37
66337;SHT30;53139;45.576;5.304;2023-03-23T08:08:59;13.60;64.06
66337;SHT30;53139;45.576;5.304;2023-03-23T08:12:00;13.54;64.50
66337;SHT30;53139;45.576;5.304;2023-03-23T08:15:00;13.61;64.15
66337;SHT30;53139;45.576;5.304;2023-03-23T08:18:00;13.46;64.54
66337;SHT30;53139;45.576;5.304;2023-03-23T08:21:02;13.55;64.30
66337;SHT30;53139;45.576;5.304;2023-03-23T08:24:05;13.47;65.02
66337;SHT30;53139;45.576;5.304;2023-03-23T08:27:05;13.44;65.38
66337;SHT30;53139;45.576;5.304;2023-03-23T08:30:07;13.61;64.77
66337;SHT30;53139;45.576;5.304;2023-03-23T08:33:09;13.57;64.74
66337;SHT30;53139;45.576;5.304;2023-03-23T08:36:10;13.71;64.45
66337;SHT30;53139;45.576;5.304;2023-03-23T08:39:10;13.82;64.47
66337;SHT30;53139;45.576;5.304;2023-03-23T08:42:11;13.85;64.72
66337;SHT30;53139;45.576;5.304;2023-03-23T08:45:14;13.92;64.67
66337;SHT30;53139;45.576;5.304;2023-03-23T08:48:15;13.83;65.30
66337;SHT30;53139;45.576;5.304;2023-03-23T08:51:16;13.99;64.49
66337;SHT30;53139;45.576;5.304;2023-03-23T08:54:17;14.05;64.86
66337;SHT30;53139;45.576;5.304;2023-03-23T08:57:17;14.01;65.00
66337;SHT30;53139;45.576;5.304;2023-03-23T09:00:20;14.22;64.43
66337;SHT30;53139;45.576;5.304;2023-03-23T09:03:21;14.05;64.79
66337;SHT30;53139;45.576;5.304;2023-03-23T09:06:21;14.41;64.76
66337;SHT30;53139;45.576;5.304;2023-03-23T09:09:22;14.26;65.36
66337;SHT30;53139;45.576;5.304;2023-03-23T09:12:22;14.30;65.46
66337;SHT30;53139;45.576;5.304;2023-03-23T09:15:23;14.22;66.03
66337;SHT30;53139;45.576;5.304;2023-03-23T09:18:24;14.46;65.71
66337;SHT30;53139;45.576;5.304;2023-03-23T09:21:25;14.32;65.82
66337;SHT30;53139;45.576;5.304;2023-03-23T09:24:27;14.36;66.24
66337;SHT30;53139;45.576;5.304;2023-03-23T09:27:27;14.29;66.75
66337;SHT30;53139;45.576;5.304;2023-03-23T09:30:30;14.60;66.40
66337;SHT30;53139;45.576;5.304;2023-03-23T09:33:31;14.37;67.13
66337;SHT30;53139;45.576;5.304;2023-03-23T09:36:34;14.29;67.90
66337;SHT30;53139;45.576;5.304;2023-03-23T09:39:36;14.65;68.19
66337;SHT30;53139;45.576;5.304;2023-03-23T09:46:40;14.89;67.22
66337;SHT30;53139;45.576;5.304;2023-03-23T09:49:50;15.05;66.52
66337;SHT30;53139;45.576;5.304;2023-03-23T09:52:58;15.20;66.33
66337;SHT30;53139;45.576;5.304;2023-03-23T09:55:59;15.09;66.72
66337;SHT30;53139;45.576;5.304;2023-03-23T09:59:07;15.49;65.72
66337;SHT30;53139;45.576;5.304;2023-03-23T10:02:18;15.30;65.49
66337;SHT30;53139;45.576;5.304;2023-03-23T10:05:42;16.13;64.60
66337;SHT30;53139;45.576;5.304;2023-03-23T10:08:50;16.34;63.75
66337;SHT30;53139;45.576;5.304;2023-03-23T10:15:25;16.49;62.41
66337;SHT30;53139;45.576;5.304;2023-03-23T10:18:43;16.57;62.28
66337;SHT30;53139;45.576;5.304;2023-03-23T10:21:50;16.42;62.65
66337;SHT30;53139;45.576;5.304;2023-03-23T10:28:20;17.08;61.72
66337;SHT30;53139;45.576;5.304;2023-03-23T10:31:31;16.75;62.34
66337;SHT30;53139;45.576;5.304;2023-03-23T10:34:58;16.88;63.00
66337;SHT30;53139;45.576;5.304;2023-03-23T10:38:05;17.09;61.53
66337;SHT30;53139;45.576;5.304;2023-03-23T10:41:14;17.50;61.43
66337;SHT30;53139;45.576;5.304;2023-03-23T10:44:20;16.85;62.29
66337;SHT30;53139;45.576;5.304;2023-03-23T10:47:22;16.29;63.52
66337;SHT30;53139;45.576;5.304;2023-03-23T10:50:31;15.88;65.13
66337;SHT30;53139;45.576;5.304;2023-03-23T10:53:36;15.64;64.55
66337;SHT30;53139;45.576;5.304;2023-03-23T10:56:43;15.30;67.67
66337;SHT30;53139;45.576;5.304;2023-03-23T10:59:45;15.02;68.26
66337;SHT30;53139;45.576;5.304;2023-03-23T11:03:17;14.87;69.52
66337;SHT30;53139;45.576;5.304;2023-03-23T11:06:30;14.67;72.74
66337;SHT30;53139;45.576;5.304;2023-03-23T11:09:39;14.60;73.42
66337;SHT30;53139;45.576;5.304;2023-03-23T11:12:46;14.59;72.73
66337;SHT30;53139;45.576;5.304;2023-03-23T11:15:48;14.82;73.44
66337;SHT30;53139;45.576;5.304;2023-03-23T11:18:48;14.59;73.55
66337;SHT30;53139;45.576;5.304;2023-03-23T11:25:05;15.06;72.19
66337;SHT30;53139;45.576;5.304;2023-03-23T11:28:08;15.18;70.62
66337;SHT30;53139;45.576;5.304;2023-03-23T11:31:09;15.54;69.99
66337;SHT30;53139;45.576;5.304;2023-03-23T11:34:16;16.20;68.98
66337;SHT30;53139;45.576;5.304;2023-03-23T11:40:29;16.71;66.92
66337;SHT30;53139;45.576;5.304;2023-03-23T11:43:34;16.32;66.75
66337;SHT30;53139;45.576;5.304;2023-03-23T11:53:41;16.04;67.08
66337;SHT30;53139;45.576;5.304;2023-03-23T11:56:44;16.46;67.01
66337;SHT30;53139;45.576;5.304;2023-03-23T11:59:47;16.53;66.35
66337;SHT30;53139;45.576;5.304;2023-03-23T12:02:59;16.30;66.42
66337;SHT30;53139;45.576;5.304;2023-03-23T12:06:08;16.08;66.54
66337;SHT30;53139;45.576;5.304;2023-03-23T12:15:56;16.09;66.55
66337;SHT30;53139;45.576;5.304;2023-03-23T12:19:20;15.95;66.31
66337;SHT30;53139;45.576;5.304;2023-03-23T12:23:02;16.20;66.03
66337;SHT30;53139;45.576;5.304;2023-03-23T12:26:31;16.39;65.98
66337;SHT30;53139;45.576;5.304;2023-03-23T12:29:57;16.25;66.18
66337;SHT30;53139;45.576;5.304;2023-03-23T12:33:11;16.20;66.42
66337;SHT30;53139;45.576;5.304;2023-03-23T12:55:25;15.99;67.70
66337;SHT30;53139;45.576;5.304;2023-03-23T12:58:31;16.23;66.78
66337;SHT30;53139;45.576;5.304;2023-03-23T13:01:38;16.05;67.89
66337;SHT30;53139;45.576;5.304;2023-03-23T13:04:45;15.98;68.31
66337;SHT30;53139;45.576;5.304;2023-03-23T13:07:55;15.81;69.52
66337;SHT30;53139;45.576;5.304;2023-03-23T13:11:01;15.87;68.65
66337;SHT30;53139;45.576;5.304;2023-03-23T13:17:49;15.46;71.34
66337;SHT30;53139;45.576;5.304;2023-03-23T13:21:08;15.57;69.74
66337;SHT30;53139;45.576;5.304;2023-03-23T13:24:19;15.64;70.05
66337;SHT30;53139;45.576;5.304;2023-03-23T13:27:28;15.49;70.43
66337;SHT30;53139;45.576;5.304;2023-03-23T13:30:29;15.61;69.54
66337;SHT30;53139;45.576;5.304;2023-03-23T13:33:32;15.46;70.83
66337;SHT30;53139;45.576;5.304;2023-03-23T13:36:37;15.29;72.37
66337;SHT30;53139;45.576;5.304;2023-03-23T13:39:56;15.06;74.32
66337;SHT30;53139;45.576;5.304;2023-03-23T13:42:59;15.01;75.31
66337;SHT30;53139;45.576;5.304;2023-03-23T13:46:23;14.95;75.97
66337;SHT30;53139;45.576;5.304;2023-03-23T13:49:24;14.93;75.03
66337;SHT30;53139;45.576;5.304;2023-03-23T13:56:04;15.02;75.88
66337;SHT30;53139;45.576;5.304;2023-03-23T13:59:12;15.15;74.99
66337;SHT30;53139;45.576;5.304;2023-03-23T14:02:36;15.08;74.77
66337;SHT30;53139;45.576;5.304;2023-03-23T14:08:40;15.16;73.85
66337;SHT30;53139;45.576;5.304;2023-03-23T14:11:54;15.42;72.91
66337;SHT30;53139;45.576;5.304;2023-03-23T14:14:59;15.65;72.65
66337;SHT30;53139;45.576;5.304;2023-03-23T14:18:04;15.55;72.56
66337;SHT30;53139;45.576;5.304;2023-03-23T14:21:06;15.78;72.47
66337;SHT30;53139;45.576;5.304;2023-03-23T14:24:19;16.19;71.18
66337;SHT30;53139;45.576;5.304;2023-03-23T14:27:22;16.08;71.75
66337;SHT30;53139;45.576;5.304;2023-03-23T14:30:25;16.25;69.61
66337;SHT30;53139;45.576;5.304;2023-03-23T14:33:26;16.68;71.34
66337;SHT30;53139;45.576;5.304;2023-03-23T14:36:30;16.88;69.38
66337;SHT30;53139;45.576;5.304;2023-03-23T14:39:32;16.96;70.17
66337;SHT30;53139;45.576;5.304;2023-03-23T14:42:35;17.09;69.63
66337;SHT30;53139;45.576;5.304;2023-03-23T14:45:36;16.50;70.10
66337;SHT30;53139;45.576;5.304;2023-03-23T14:48:38;16.19;69.88
66337;SHT30;53139;45.576;5.304;2023-03-23T14:51:47;16.47;70.12
66337;SHT30;53139;45.576;5.304;2023-03-23T14:54:48;16.50;69.59
66337;SHT30;53139;45.576;5.304;2023-03-23T14:57:49;16.57;69.19
66337;SHT30;53139;45.576;5.304;2023-03-23T15:07:02;16.59;69.01
66337;SHT30;53139;45.576;5.304;2023-03-23T15:10:08;16.53;68.90
66337;SHT30;53139;45.576;5.304;2023-03-23T15:13:12;16.57;69.89
66337;SHT30;53139;45.576;5.304;2023-03-23T15:16:17;16.52;69.18
66337;SHT30;53139;45.576;5.304;2023-03-23T15:19:24;16.40;69.41
66337;SHT30;53139;45.576;5.304;2023-03-23T15:22:30;16.34;69.85
66337;SHT30;53139;45.576;5.304;2023-03-23T15:25:33;16.40;69.58
66337;SHT30;53139;45.576;5.304;2023-03-23T15:28:40;16.61;69.02
66337;SHT30;53139;45.576;5.304;2023-03-23T15:31:49;16.85;68.86
66337;SHT30;53139;45.576;5.304;2023-03-23T15:34:50;16.64;69.87
66337;SHT30;53139;45.576;5.304;2023-03-23T15:38:23;16.71;69.78
66337;SHT30;53139;45.576;5.304;2023-03-23T15:41:30;16.59;70.32
66337;SHT30;53139;45.576;5.304;2023-03-23T15:44:32;16.71;69.70
66337;SHT30;53139;45.576;5.304;2023-03-23T15:47:53;16.52;69.43
66337;SHT30;53139;45.576;5.304;2023-03-23T15:50:58;16.56;69.46
66337;SHT30;53139;45.576;5.304;2023-03-23T15:53:59;16.63;69.59
66337;SHT30;53139;45.576;5.304;2023-03-23T15:56:59;16.74;69.66
66337;SHT30;53139;45.576;5.304;2023-03-23T16:00:00;16.63;69.32
66337;SHT30;53139;45.576;5.304;2023-03-23T16:03:18;16.56;69.71
66337;SHT30;53139;45.576;5.304;2023-03-23T16:06:25;16.40;70.31
66337;SHT30;53139;45.576;5.304;2023-03-23T16:09:26;16.57;69.89
66337;SHT30;53139;45.576;5.304;2023-03-23T16:12:26;16.70;69.91
66337;SHT30;53139;45.576;5.304;2023-03-23T16:15:27;16.64;69.49
66337;SHT30;53139;45.576;5.304;2023-03-23T16:18:27;16.43;70.01
66337;SHT30;53139;45.576;5.304;2023-03-23T16:21:28;16.56;69.83
66337;SHT30;53139;45.576;5.304;2023-03-23T16:24:28;16.54;69.47
66337;SHT30;53139;45.576;5.304;2023-03-23T16:27:28;16.59;69.95
66337;SHT30;53139;45.576;5.304;2023-03-23T16:30:32;16.27;70.87
66337;SHT30;53139;45.576;5.304;2023-03-23T16:33:33;16.39;70.36
66337;SHT30;53139;45.576;5.304;2023-03-23T16:36:34;16.45;69.97
66337;SHT30;53139;45.576;5.304;2023-03-23T16:39:34;16.30;70.44
66337;SHT30;53139;45.576;5.304;2023-03-23T16:42:35;16.09;71.10
66337;SHT30;53139;45.576;5.304;2023-03-23T16:45:40;16.25;71.09
66337;SHT30;53139;45.576;5.304;2023-03-23T16:48:40;15.99;71.58
66337;SHT30;53139;45.576;5.304;2023-03-23T16:51:41;16.02;71.79
66337;SHT30;53139;45.576;5.304;2023-03-23T16:54:41;15.97;71.84
66337;SHT30;53139;45.576;5.304;2023-03-23T16:57:42;15.91;72.21
66337;SHT30;53139;45.576;5.304;2023-03-23T17:00:46;15.77;72.48
66337;SHT30;53139;45.576;5.304;2023-03-23T17:03:47;15.63;73.47
66337;SHT30;53139;45.576;5.304;2023-03-23T17:06:48;15.65;73.03
66337;SHT30;53139;45.576;5.304;2023-03-23T17:09:50;15.53;73.55
66337;SHT30;53139;45.576;5.304;2023-03-23T17:12:51;15.58;73.41
66337;SHT30;53139;45.576;5.304;2023-03-23T17:15:54;15.43;73.98
66337;SHT30;53139;45.576;5.304;2023-03-23T17:18:55;15.49;73.57
66337;SHT30;53139;45.576;5.304;2023-03-23T17:21:56;15.39;73.85
66337;SHT30;53139;45.576;5.304;2023-03-23T17:24:56;15.43;73.50
66337;SHT30;53139;45.576;5.304;2023-03-23T17:27:57;15.30;73.85
66337;SHT30;53139;45.576;5.304;2023-03-23T17:30:58;15.25;74.23
66337;SHT30;53139;45.576;5.304;2023-03-23T17:33:58;15.16;74.68
66337;SHT30;53139;45.576;5.304;2023-03-23T17:36:59;15.01;75.17
66337;SHT30;53139;45.576;5.304;2023-03-23T17:40:00;15.13;74.65
66337;SHT30;53139;45.576;5.304;2023-03-23T17:43:00;14.99;75.11
66337;SHT30;53139;45.576;5.304;2023-03-23T17:46:01;14.89;75.37
66337;SHT30;53139;45.576;5.304;2023-03-23T17:49:01;14.85;75.62
66337;SHT30;53139;45.576;5.304;2023-03-23T17:52:03;14.71;76.43
66337;SHT30;53139;45.576;5.304;2023-03-23T17:55:04;14.75;76.13
66337;SHT30;53139;45.576;5.304;2023-03-23T17:58:04;14.67;76.53
66337;SHT30;53139;45.576;5.304;2023-03-23T18:01:05;14.63;76.66
66337;SHT30;53139;45.576;5.304;2023-03-23T18:04:05;14.60;76.57
66337;SHT30;53139;45.576;5.304;2023-03-23T18:07:06;14.65;76.39
66337;SHT30;53139;45.576;5.304;2023-03-23T18:10:26;14.59;77.04
66337;SHT30;53139;45.576;5.304;2023-03-23T18:13:32;14.60;76.65
66337;SHT30;53139;45.576;5.304;2023-03-23T18:16:33;14.43;77.58
66337;SHT30;53139;45.576;5.304;2023-03-23T18:19:34;14.53;77.10
66337;SHT30;53139;45.576;5.304;2023-03-23T18:22:35;14.50;76.97
66337;SHT30;53139;45.576;5.304;2023-03-23T18:25:36;14.37;77.66
66337;SHT30;53139;45.576;5.304;2023-03-23T18:28:37;14.37;77.58
66337;SHT30;53139;45.576;5.304;2023-03-23T18:31:38;14.32;77.87
66337;SHT30;53139;45.576;5.304;2023-03-23T18:34:40;14.34;77.80
66337;SHT30;53139;45.576;5.304;2023-03-23T18:37:40;14.27;78.09
66337;SHT30;53139;45.576;5.304;2023-03-23T18:40:44;14.26;78.18
66337;SHT30;53139;45.576;5.304;2023-03-23T18:43:44;14.36;77.89
66337;SHT30;53139;45.576;5.304;2023-03-23T18:46:45;14.22;78.49
66337;SHT30;53139;45.576;5.304;2023-03-23T18:49:46;14.20;78.30
66337;SHT30;53139;45.576;5.304;2023-03-23T18:52:50;14.15;78.38
66337;SHT30;53139;45.576;5.304;2023-03-23T18:55:51;14.12;78.83
66337;SHT30;53139;45.576;5.304;2023-03-23T18:58:52;14.13;78.60
66337;SHT30;53139;45.576;5.304;2023-03-23T19:01:52;14.13;78.60
66337;SHT30;53139;45.576;5.304;2023-03-23T19:04:53;14.12;78.35
66337;SHT30;53139;45.576;5.304;2023-03-23T19:07:53;14.10;78.48
66337;SHT30;53139;45.576;5.304;2023-03-23T19:10:59;14.04;78.73
66337;SHT30;53139;45.576;5.304;2023-03-23T19:14:00;13.98;79.05
66337;SHT30;53139;45.576;5.304;2023-03-23T19:17:01;13.94;79.12
66337;SHT30;53139;45.576;5.304;2023-03-23T19:20:02;14.12;78.47
66337;SHT30;53139;45.576;5.304;2023-03-23T19:23:03;13.95;79.19
66337;SHT30;53139;45.576;5.304;2023-03-23T19:26:04;14.01;78.82
66337;SHT30;53139;45.576;5.304;2023-03-23T19:29:13;14.02;78.66
66337;SHT30;53139;45.576;5.304;2023-03-23T19:32:20;14.02;78.75
66337;SHT30;53139;45.576;5.304;2023-03-23T19:35:21;14.09;78.59
66337;SHT30;53139;45.576;5.304;2023-03-23T19:38:39;14.12;78.31
66337;SHT30;53139;45.576;5.304;2023-03-23T19:41:39;14.13;78.22
66337;SHT30;53139;45.576;5.304;2023-03-23T19:44:40;14.04;78.51
66337;SHT30;53139;45.576;5.304;2023-03-23T19:47:40;14.16;78.26
66337;SHT30;53139;45.576;5.304;2023-03-23T19:50:40;14.06;78.61
66337;SHT30;53139;45.576;5.304;2023-03-23T19:53:41;14.04;78.63
66337;SHT30;53139;45.576;5.304;2023-03-23T19:56:42;14.09;78.41
66337;SHT30;53139;45.576;5.304;2023-03-23T19:59:42;14.05;78.68
66337;SHT30;53139;45.576;5.304;2023-03-23T20:02:43;14.01;78.80
66337;SHT30;53139;45.576;5.304;2023-03-23T20:05:43;14.06;78.70
66337;SHT30;53139;45.576;5.304;2023-03-23T20:08:45;14.08;78.36
66337;SHT30;53139;45.576;5.304;2023-03-23T20:11:49;14.05;78.54
66337;SHT30;53139;45.576;5.304;2023-03-23T20:14:50;14.05;78.51
66337;SHT30;53139;45.576;5.304;2023-03-23T20:17:50;14.08;78.29
66337;SHT30;53139;45.576;5.304;2023-03-23T20:21:12;14.01;78.59
66337;SHT30;53139;45.576;5.304;2023-03-23T20:24:13;13.98;78.55
66337;SHT30;53139;45.576;5.304;2023-03-23T20:27:14;14.02;78.52
66337;SHT30;53139;45.576;5.304;2023-03-23T20:30:17;13.97;78.61
66337;SHT30;53139;45.576;5.304;2023-03-23T20:33:18;13.97;78.65
66337;SHT30;53139;45.576;5.304;2023-03-23T20:36:19;13.94;78.58
66337;SHT30;53139;45.576;5.304;2023-03-23T20:39:19;14.01;78.32
66337;SHT30;53139;45.576;5.304;2023-03-23T20:42:22;14.02;78.00
66337;SHT30;53139;45.576;5.304;2023-03-23T20:45:22;13.94;78.49
66337;SHT30;53139;45.576;5.304;2023-03-23T20:48:24;13.95;78.15
66337;SHT30;53139;45.576;5.304;2023-03-23T20:51:26;13.91;78.28
66337;SHT30;53139;45.576;5.304;2023-03-23T20:54:27;13.94;77.92
66337;SHT30;53139;45.576;5.304;2023-03-23T20:57:27;13.79;78.71
66337;SHT30;53139;45.576;5.304;2023-03-23T21:00:28;13.78;78.52
66337;SHT30;53139;45.576;5.304;2023-03-23T21:03:37;13.78;78.30
66337;SHT30;53139;45.576;5.304;2023-03-23T21:06:37;13.79;78.03